createdAt,value
2023-05-10T00:02:09.462Z,52.04
2023-05-10T00:04:55.574Z,51.80
2023-05-10T00:07:41.999Z,52.08
2023-05-10T00:10:27.691Z,51.88
2023-05-10T00:13:13.958Z,52.03
2023-05-10T00:15:59.997Z,51.88
2023-05-10T00:18:46.139Z,51.99
2023-05-10T00:21:33.244Z,51.77
2023-05-10T00:24:19.235Z,52.16
2023-05-10T00:27:05.178Z,51.93
2023-05-10T00:29:51.326Z,52.04
2023-05-10T00:32:37.162Z,52.20
2023-05-10T00:35:24.060Z,51.90
2023-05-10T00:38:10.261Z,52.05
2023-05-10T00:40:56.137Z,51.93
2023-05-10T00:43:48.026Z,52.19
2023-05-10T00:46:34.347Z,51.75
2023-05-10T00:49:20.723Z,51.76
2023-05-10T00:52:07.133Z,52.02
2023-05-10T00:54:53.519Z,52.03
2023-05-10T00:57:39.875Z,51.71
2023-05-10T01:00:26.667Z,51.93
2023-05-10T01:03:13.338Z,51.98
2023-05-10T01:05:59.466Z,51.92
2023-05-10T01:08:45.597Z,51.94
2023-05-10T01:11:31.495Z,52.17
2023-05-10T01:14:19.743Z,52.08
2023-05-10T01:17:06.598Z,51.74
2023-05-10T01:19:52.756Z,51.83
2023-05-10T01:23:00.554Z,52.23
2023-05-10T01:26:05.220Z,51.99
2023-05-10T01:29:30.466Z,52.18
2023-05-10T01:32:25.849Z,52.10
2023-05-10T01:35:33.891Z,52.14
2023-05-10T01:38:37.243Z,52.36
2023-05-10T01:41:47.853Z,52.49
2023-05-10T01:45:01.529Z,52.46
2023-05-10T01:48:09.477Z,52.61
2023-05-10T01:50:56.227Z,52.19
2023-05-10T01:53:43.791Z,52.20
2023-05-10T01:56:32.562Z,52.29
2023-05-10T01:59:19.808Z,52.30
2023-05-10T02:02:06.938Z,52.11
2023-05-10T02:04:54.567Z,52.58
2023-05-10T02:07:41.269Z,52.81
2023-05-10T02:10:31.401Z,52.68
2023-05-10T02:13:18.557Z,52.94
2023-05-10T02:16:04.805Z,52.69
2023-05-10T02:18:53.190Z,52.83
2023-05-10T02:21:40.783Z,52.75
2023-05-10T02:24:27.742Z,52.81
2023-05-10T02:27:13.885Z,53.17
2023-05-10T02:30:01.900Z,52.73
2023-05-10T02:32:48.399Z,53.25
2023-05-10T02:35:35.064Z,53.26
2023-05-10T02:38:22.614Z,53.05
2023-05-10T02:41:11.344Z,53.17
2023-05-10T02:44:01.161Z,52.76
2023-05-10T02:46:47.990Z,52.99
2023-05-10T02:49:33.920Z,52.68
2023-05-10T02:52:24.733Z,52.98
2023-05-10T02:55:13.711Z,52.89
2023-05-10T02:58:03.325Z,52.77
2023-05-10T03:00:49.460Z,52.99
2023-05-10T03:03:35.585Z,52.79
2023-05-10T03:06:21.394Z,52.86
2023-05-10T03:09:08.700Z,52.81
2023-05-10T03:12:03.181Z,53.16
2023-05-10T03:15:05.137Z,53.15
2023-05-10T03:18:10.698Z,52.99
2023-05-10T03:21:01.674Z,52.93
2023-05-10T03:23:58.059Z,53.16
2023-05-10T03:26:46.770Z,53.03
2023-05-10T03:29:37.578Z,53.34
2023-05-10T03:32:24.563Z,53.31
2023-05-10T03:35:11.517Z,53.23
2023-05-10T03:37:57.482Z,53.23
2023-05-10T03:40:43.341Z,53.49
2023-05-10T03:43:29.491Z,53.66
2023-05-10T03:46:15.430Z,53.57
2023-05-10T03:49:01.980Z,53.80
2023-05-10T03:51:47.962Z,53.95
2023-05-10T03:54:33.746Z,53.75
2023-05-10T03:57:19.599Z,53.77
2023-05-10T04:00:05.961Z,53.68
2023-05-10T04:03:00.597Z,54.03
2023-05-10T04:05:46.993Z,53.70
2023-05-10T04:08:32.962Z,53.86
2023-05-10T04:11:18.829Z,53.83
2023-05-10T04:14:04.875Z,54.02
2023-05-10T04:16:50.734Z,53.97
2023-05-10T04:19:36.572Z,53.87
2023-05-10T04:22:22.423Z,54.16
2023-05-10T04:25:08.766Z,54.11
2023-05-10T04:27:54.513Z,54.23
2023-05-10T04:30:40.328Z,54.00
2023-05-10T04:33:26.450Z,54.28
2023-05-10T04:36:12.756Z,54.54
2023-05-10T04:38:59.071Z,54.36
2023-05-10T04:41:45.078Z,54.45
2023-05-10T04:44:31.744Z,54.25
2023-05-10T04:47:17.818Z,54.20
2023-05-10T04:50:05.349Z,54.40
2023-05-10T04:52:52.748Z,54.39
2023-05-10T04:55:39.448Z,54.29
2023-05-10T04:58:25.543Z,54.41
2023-05-10T05:01:12.152Z,54.30
2023-05-10T05:03:59.374Z,54.40
2023-05-10T05:06:46.551Z,54.57
2023-05-10T05:09:33.212Z,54.25
2023-05-10T05:12:20.268Z,54.33
2023-05-10T05:15:09.060Z,54.58
2023-05-10T05:17:56.101Z,53.92
2023-05-10T05:20:42.014Z,54.06
2023-05-10T05:23:28.283Z,54.40
2023-05-10T05:26:14.315Z,54.26
2023-05-10T05:29:00.506Z,54.54
2023-05-10T05:31:46.571Z,54.42
2023-05-10T05:34:32.780Z,54.27
2023-05-10T05:37:22.565Z,54.53
2023-05-10T05:40:09.470Z,54.69
2023-05-10T05:42:55.669Z,54.41
2023-05-10T05:45:42.043Z,54.48
2023-05-10T05:48:28.202Z,54.63
2023-05-10T05:51:14.333Z,54.64
2023-05-10T05:54:00.350Z,54.74
2023-05-10T05:56:46.186Z,54.83
2023-05-10T05:59:32.405Z,55.00
2023-05-10T06:02:18.647Z,54.67
2023-05-10T06:05:04.803Z,54.81
2023-05-10T06:07:51.028Z,54.89
2023-05-10T06:10:37.542Z,54.80
2023-05-10T06:13:23.462Z,55.01
2023-05-10T06:16:09.629Z,54.86
2023-05-10T06:18:56.402Z,54.72
2023-05-10T06:21:42.743Z,54.94
2023-05-10T06:24:28.888Z,54.74
2023-05-10T06:27:14.569Z,55.00
2023-05-10T06:30:11.929Z,54.80
2023-05-10T06:33:01.356Z,54.93
2023-05-10T06:35:47.283Z,54.77
2023-05-10T06:38:33.393Z,55.26
2023-05-10T06:41:19.197Z,55.04
2023-05-10T06:44:05.368Z,55.25
2023-05-10T06:46:51.247Z,55.29
2023-05-10T06:49:38.275Z,55.01
2023-05-10T06:52:24.665Z,55.13
2023-05-10T06:55:14.947Z,54.86
2023-05-10T06:58:04.057Z,55.05
2023-05-10T07:00:50.040Z,55.26
2023-05-10T07:03:35.846Z,55.19
2023-05-10T07:06:32.141Z,55.14
2023-05-10T07:09:18.764Z,55.24
2023-05-10T07:12:04.964Z,55.17
2023-05-10T07:14:50.871Z,54.93
2023-05-10T07:17:37.083Z,55.28
2023-05-10T07:20:23.049Z,55.41
2023-05-10T07:23:09.280Z,54.89
2023-05-10T07:25:55.227Z,55.24
2023-05-10T07:28:41.655Z,55.23
2023-05-10T07:31:27.832Z,54.95
2023-05-10T07:34:13.925Z,54.68
2023-05-10T07:37:00.401Z,55.26
2023-05-10T07:39:46.599Z,55.02
2023-05-10T07:42:32.243Z,55.24
2023-05-10T07:45:18.240Z,54.94
2023-05-10T07:48:04.257Z,55.07
2023-05-10T07:50:50.227Z,55.21
2023-05-10T07:53:36.242Z,54.73
2023-05-10T07:56:28.384Z,54.68
2023-05-10T07:59:18.478Z,55.20
2023-05-10T08:02:04.160Z,55.19
2023-05-10T08:04:50.039Z,55.06
2023-05-10T08:07:35.675Z,54.98
2023-05-10T08:10:21.580Z,54.80
2023-05-10T08:13:07.508Z,54.90
2023-05-10T08:15:54.255Z,54.97
2023-05-10T08:18:40.993Z,54.88
2023-05-10T08:21:27.259Z,54.82
2023-05-10T08:24:13.067Z,55.16
2023-05-10T08:26:59.213Z,54.70
2023-05-10T08:29:50.041Z,54.52
2023-05-10T08:32:36.757Z,54.52
2023-05-10T08:35:22.500Z,54.33
2023-05-10T08:38:08.346Z,54.39
2023-05-10T08:40:58.076Z,54.38
2023-05-10T08:43:47.280Z,54.22
2023-05-10T08:46:36.777Z,54.27
2023-05-10T08:49:22.992Z,53.96
2023-05-10T08:52:09.447Z,54.37
2023-05-10T08:54:55.334Z,54.00
2023-05-10T08:57:41.117Z,54.16
2023-05-10T09:00:28.471Z,53.97
2023-05-10T09:03:14.279Z,54.10
2023-05-10T09:06:00.380Z,53.84
2023-05-10T09:08:46.870Z,53.86
2023-05-10T09:11:33.188Z,53.57
2023-05-10T09:14:19.892Z,53.79
2023-05-10T09:17:05.979Z,53.65
2023-05-10T09:20:00.622Z,53.85
2023-05-10T09:22:46.749Z,53.72
2023-05-10T09:25:34.681Z,53.51
2023-05-10T09:28:21.525Z,53.89
2023-05-10T09:31:07.500Z,53.54
2023-05-10T09:33:54.019Z,53.33
2023-05-10T09:36:55.319Z,53.31
2023-05-10T09:39:42.469Z,53.40
2023-05-10T09:42:28.254Z,53.36
2023-05-10T09:45:14.107Z,53.31
2023-05-10T09:48:00.943Z,53.36
2023-05-10T09:50:46.854Z,53.35
2023-05-10T09:53:33.010Z,53.45
2023-05-10T09:56:39.982Z,53.31
2023-05-10T09:59:28.336Z,53.33
2023-05-10T10:02:16.037Z,53.41
2023-05-10T10:05:06.865Z,53.15
2023-05-10T10:07:53.518Z,53.23
2023-05-10T10:10:41.502Z,52.85
2023-05-10T10:13:27.693Z,53.06
2023-05-10T10:16:13.875Z,53.04
2023-05-10T10:18:59.823Z,52.79
2023-05-10T10:21:45.886Z,52.93
2023-05-10T10:24:31.692Z,52.81
2023-05-10T10:27:20.412Z,52.81
2023-05-10T10:30:15.146Z,52.73
2023-05-10T10:33:10.406Z,52.82
2023-05-10T10:36:04.228Z,52.54
2023-05-10T10:38:49.867Z,52.59
2023-05-10T10:41:37.748Z,52.27
2023-05-10T10:44:26.416Z,52.54
2023-05-10T10:47:13.022Z,52.42
2023-05-10T10:49:59.034Z,52.32
2023-05-10T10:52:45.670Z,52.30
2023-05-10T10:55:32.250Z,52.22
2023-05-10T10:58:36.418Z,52.39
2023-05-10T11:01:22.508Z,52.49
2023-05-10T11:04:08.332Z,52.07
2023-05-10T11:07:17.532Z,52.20
2023-05-10T11:10:06.785Z,52.36
2023-05-10T11:13:03.712Z,52.36
2023-05-10T11:15:51.300Z,52.02
2023-05-10T11:18:37.893Z,52.21
2023-05-10T11:21:24.430Z,52.16
2023-05-10T11:24:15.256Z,52.14
2023-05-10T11:27:01.964Z,52.17
2023-05-10T11:29:47.851Z,52.17
2023-05-10T11:32:33.969Z,52.17
2023-05-10T11:35:20.056Z,52.45
2023-05-10T11:38:12.923Z,52.27
2023-05-10T11:40:59.224Z,52.17
2023-05-10T11:43:50.078Z,52.50
2023-05-10T11:46:37.744Z,52.58
2023-05-10T11:49:25.740Z,52.64
2023-05-10T11:52:14.460Z,52.60
2023-05-10T11:55:00.832Z,53.24
2023-05-10T11:57:53.315Z,54.37
2023-05-10T12:00:39.577Z,53.44
2023-05-10T12:03:27.091Z,53.37
2023-05-10T12:06:13.283Z,54.22
2023-05-10T12:08:59.657Z,54.53
2023-05-10T12:11:45.850Z,54.44
2023-05-10T12:14:36.217Z,54.98
2023-05-10T12:17:22.199Z,55.15
2023-05-10T12:20:22.194Z,56.10
2023-05-10T12:23:10.381Z,55.59
2023-05-10T12:26:14.853Z,56.33
2023-05-10T12:29:30.388Z,55.46
2023-05-10T12:32:16.381Z,55.18
2023-05-10T12:35:05.040Z,55.40
2023-05-10T12:37:52.780Z,55.18
2023-05-10T12:41:12.538Z,55.53
2023-05-10T12:43:58.557Z,55.33
2023-05-10T12:46:44.449Z,55.43
2023-05-10T12:49:30.377Z,55.21
2023-05-10T12:52:16.837Z,54.88
2023-05-10T12:55:04.209Z,54.95
2023-05-10T12:57:50.193Z,54.88
2023-05-10T13:00:36.491Z,55.04
2023-05-10T13:03:22.555Z,55.00
2023-05-10T13:06:08.405Z,54.81
2023-05-10T13:08:55.909Z,54.72
2023-05-10T13:11:42.015Z,54.85
2023-05-10T13:14:28.461Z,54.63
2023-05-10T13:17:14.224Z,54.64
2023-05-10T13:20:00.856Z,54.55
2023-05-10T13:22:47.001Z,54.69
2023-05-10T13:25:33.154Z,54.56
2023-05-10T13:28:19.168Z,55.04
2023-05-10T13:31:06.051Z,54.89
2023-05-10T13:33:52.859Z,55.16
2023-05-10T13:36:39.157Z,55.36
2023-05-10T13:39:25.225Z,55.80
2023-05-10T13:42:11.261Z,55.61
2023-05-10T13:44:57.035Z,55.92
2023-05-10T13:47:43.069Z,56.12
2023-05-10T13:50:29.367Z,56.07
2023-05-10T13:53:15.751Z,56.18
2023-05-10T13:56:03.269Z,56.55
2023-05-10T13:58:49.088Z,56.44
2023-05-10T14:01:35.090Z,56.13
2023-05-10T14:04:20.977Z,56.19
2023-05-10T14:07:06.877Z,56.10
2023-05-10T14:10:00.574Z,56.23
2023-05-10T14:12:46.717Z,56.75
2023-05-10T14:15:32.312Z,56.19
2023-05-10T14:18:18.593Z,56.17
2023-05-10T14:21:05.246Z,56.05
2023-05-10T14:23:51.276Z,56.02
2023-05-10T14:26:37.476Z,56.01
2023-05-10T14:29:24.561Z,55.89
2023-05-10T14:32:10.874Z,56.00
2023-05-10T14:34:56.993Z,55.90
2023-05-10T14:37:43.930Z,56.00
2023-05-10T14:40:29.939Z,55.87
2023-05-10T14:43:18.583Z,55.92
2023-05-10T14:46:04.515Z,56.14
2023-05-10T14:48:50.710Z,56.21
2023-05-10T14:51:38.014Z,55.95
2023-05-10T14:54:24.097Z,55.94
2023-05-10T14:57:09.887Z,55.89
2023-05-10T14:59:58.930Z,55.86
2023-05-10T15:02:45.707Z,56.18
2023-05-10T15:05:32.198Z,55.98
2023-05-10T15:08:18.455Z,56.17
2023-05-10T15:11:04.690Z,55.77
2023-05-10T15:13:52.219Z,56.00
2023-05-10T15:16:38.520Z,55.72
2023-05-10T15:19:24.862Z,56.04
2023-05-10T15:22:11.480Z,55.99
2023-05-10T15:24:57.257Z,56.06
2023-05-10T15:27:45.762Z,55.69
2023-05-10T15:30:32.036Z,55.86
2023-05-10T15:33:18.181Z,55.81
2023-05-10T15:36:05.332Z,55.67
2023-05-10T15:38:51.181Z,55.64
2023-05-10T15:41:37.545Z,55.69
2023-05-10T15:44:24.340Z,55.86
2023-05-10T15:47:10.571Z,55.43
2023-05-10T15:49:56.566Z,55.56
2023-05-10T15:52:42.452Z,55.46
2023-05-10T15:55:28.964Z,55.56
2023-05-10T15:58:14.905Z,55.54
2023-05-10T16:01:01.893Z,55.49
2023-05-10T16:03:47.846Z,55.39
2023-05-10T16:06:34.317Z,55.24
2023-05-10T16:09:20.052Z,55.52
2023-05-10T16:12:05.935Z,55.02
2023-05-10T16:14:52.783Z,55.19
2023-05-10T16:17:38.995Z,55.20
2023-05-10T16:20:25.325Z,55.21
2023-05-10T16:23:11.900Z,55.10
2023-05-10T16:25:57.849Z,54.89
2023-05-10T16:28:43.915Z,54.94
2023-05-10T16:31:29.995Z,55.07
2023-05-10T16:34:16.514Z,55.05
2023-05-10T16:37:02.349Z,54.78
2023-05-10T16:39:48.468Z,54.91
2023-05-10T16:42:34.526Z,54.82
2023-05-10T16:45:20.781Z,54.98
2023-05-10T16:48:07.013Z,54.75
2023-05-10T16:50:53.092Z,54.73
2023-05-10T16:53:39.364Z,54.75
2023-05-10T16:56:25.370Z,54.42
2023-05-10T16:59:11.576Z,54.30
2023-05-10T17:01:57.922Z,54.58
2023-05-10T17:04:43.805Z,54.31
2023-05-10T17:07:29.677Z,54.51
2023-05-10T17:10:16.353Z,54.37
2023-05-10T17:13:03.758Z,54.55
2023-05-10T17:15:49.866Z,54.48
2023-05-10T17:18:35.868Z,54.30
2023-05-10T17:21:22.035Z,54.25
2023-05-10T17:24:08.226Z,54.14
2023-05-10T17:26:54.527Z,54.39
2023-05-10T17:29:40.780Z,54.24
2023-05-10T17:32:27.001Z,54.13
2023-05-10T17:35:12.894Z,54.11
2023-05-10T17:37:59.055Z,54.06
2023-05-10T17:40:45.072Z,54.34
2023-05-10T17:43:30.906Z,54.13
2023-05-10T17:46:17.729Z,53.98
2023-05-10T17:49:03.707Z,54.20
2023-05-10T17:51:49.686Z,53.80
2023-05-10T17:54:35.914Z,53.77
2023-05-10T17:57:21.747Z,54.07
2023-05-10T18:00:09.331Z,53.78
2023-05-10T18:02:55.119Z,53.93
2023-05-10T18:05:41.403Z,54.06
2023-05-10T18:08:28.867Z,53.74
2023-05-10T18:11:14.926Z,53.76
2023-05-10T18:14:00.784Z,53.93
2023-05-10T18:16:46.668Z,53.70
2023-05-10T18:19:33.024Z,53.62
2023-05-10T18:22:19.259Z,53.66
2023-05-10T18:25:05.848Z,53.69
2023-05-10T18:27:52.512Z,53.75
2023-05-10T18:30:38.667Z,53.66
2023-05-10T18:33:26.166Z,53.46
2023-05-10T18:36:12.586Z,53.49
2023-05-10T18:38:59.116Z,53.56
2023-05-10T18:41:45.995Z,53.48
2023-05-10T18:44:32.039Z,53.38
2023-05-10T18:47:18.718Z,52.99
2023-05-10T18:50:05.724Z,53.39
2023-05-10T18:52:51.882Z,53.38
2023-05-10T18:55:38.129Z,53.03
2023-05-10T18:58:24.338Z,53.33
2023-05-10T19:01:10.928Z,53.31
2023-05-10T19:03:59.494Z,53.13
2023-05-10T19:06:46.554Z,53.33
2023-05-10T19:09:32.985Z,53.31
2023-05-10T19:12:19.424Z,53.02
2023-05-10T19:15:06.829Z,53.08
2023-05-10T19:17:54.260Z,53.01
2023-05-10T19:20:42.346Z,52.97
2023-05-10T19:23:29.155Z,52.98
2023-05-10T19:26:16.260Z,52.85
2023-05-10T19:29:04.125Z,52.75
2023-05-10T19:31:53.068Z,52.95
2023-05-10T19:34:40.021Z,52.85
2023-05-10T19:37:26.308Z,52.81
2023-05-10T19:40:16.516Z,52.75
2023-05-10T19:43:05.326Z,52.28
2023-05-10T19:45:54.218Z,52.48
2023-05-10T19:48:41.501Z,52.51
2023-05-10T19:51:29.267Z,52.33
2023-05-10T19:54:17.032Z,52.53
2023-05-10T19:57:04.679Z,52.36
2023-05-10T19:59:51.376Z,52.37
2023-05-10T20:02:37.541Z,52.10
2023-05-10T20:05:24.070Z,52.19
2023-05-10T20:08:10.966Z,52.01
2023-05-10T20:11:02.945Z,52.34
2023-05-10T20:13:49.245Z,52.29
2023-05-10T20:16:35.670Z,51.95
2023-05-10T20:19:39.927Z,51.98
2023-05-10T20:22:26.529Z,52.17
2023-05-10T20:25:15.227Z,51.76
2023-05-10T20:28:04.421Z,51.80
2023-05-10T20:30:54.630Z,51.99
2023-05-10T20:33:42.410Z,51.77
2023-05-10T20:36:29.406Z,51.70
2023-05-10T20:39:16.524Z,51.78
2023-05-10T20:42:04.296Z,51.76
2023-05-10T20:44:50.885Z,51.63
2023-05-10T20:47:38.240Z,51.61
2023-05-10T20:50:24.692Z,51.42
2023-05-10T20:53:12.133Z,51.57
2023-05-10T20:55:59.116Z,51.67
2023-05-10T20:58:45.219Z,51.68
2023-05-10T21:01:32.220Z,51.37
2023-05-10T21:04:18.162Z,51.20
2023-05-10T21:07:04.261Z,51.33
2023-05-10T21:09:50.374Z,51.18
2023-05-10T21:12:37.183Z,51.19
2023-05-10T21:15:24.607Z,51.25
2023-05-10T21:18:10.731Z,51.24
2023-05-10T21:20:56.816Z,51.15
2023-05-10T21:23:42.648Z,51.26
2023-05-10T21:26:28.786Z,51.08
2023-05-10T21:29:14.953Z,51.38
2023-05-10T21:32:01.306Z,51.16
2023-05-10T21:34:47.337Z,51.19
2023-05-10T21:37:33.156Z,51.54
2023-05-10T21:40:19.522Z,51.27
2023-05-10T21:43:06.234Z,51.41
2023-05-10T21:45:52.050Z,51.07
2023-05-10T21:48:37.738Z,51.46
2023-05-10T21:51:23.622Z,51.08
2023-05-10T21:54:09.636Z,50.95
2023-05-10T21:56:55.464Z,51.12
2023-05-10T21:59:41.187Z,50.96
2023-05-10T22:02:26.897Z,50.67
2023-05-10T22:05:13.190Z,50.87
2023-05-10T22:07:58.987Z,51.17
2023-05-10T22:10:44.805Z,51.23
2023-05-10T22:13:31.172Z,51.10
2023-05-10T22:16:17.436Z,51.28
2023-05-10T22:19:03.524Z,50.97
2023-05-10T22:21:49.453Z,50.87
2023-05-10T22:24:35.457Z,51.15
2023-05-10T22:27:21.464Z,50.90
2023-05-10T22:30:08.714Z,50.92
2023-05-10T22:32:54.650Z,51.18
2023-05-10T22:35:40.732Z,50.89
2023-05-10T22:38:26.581Z,50.87
2023-05-10T22:41:12.375Z,51.08
2023-05-10T22:43:58.448Z,50.98
2023-05-10T22:46:44.409Z,50.89
2023-05-10T22:49:30.324Z,51.08
2023-05-10T22:52:16.013Z,51.15
2023-05-10T22:55:02.421Z,50.90
2023-05-10T22:57:48.611Z,50.90
2023-05-10T23:00:34.839Z,51.03
2023-05-10T23:03:20.972Z,50.87
2023-05-10T23:06:07.122Z,50.82
2023-05-10T23:08:53.150Z,50.79
2023-05-10T23:11:38.876Z,51.17
2023-05-10T23:14:24.646Z,50.98
2023-05-10T23:17:10.321Z,50.72
2023-05-10T23:19:56.388Z,51.00
2023-05-10T23:22:42.552Z,50.86
2023-05-10T23:25:28.390Z,50.66
2023-05-10T23:28:14.485Z,50.94
2023-05-10T23:31:00.677Z,50.82
2023-05-10T23:33:47.076Z,50.81
2023-05-10T23:36:33.421Z,50.95
2023-05-10T23:39:19.285Z,50.70
2023-05-10T23:42:05.668Z,50.95
2023-05-10T23:44:52.621Z,51.16
2023-05-10T23:47:38.549Z,50.78
2023-05-10T23:50:24.477Z,50.72
2023-05-10T23:53:10.681Z,50.81
2023-05-10T23:55:56.782Z,50.83
2023-05-10T23:58:42.961Z,50.64
